sensor_id;sensor_type;location;lat;lon;timestamp;P1;durP1;ratioP1;P2;durP2;ratioP2
71435;SDS011;59251;51.326;12.370;2022-07-23T00:00:48;8.30;;;4.57;;
71435;SDS011;59251;51.326;12.370;2022-07-23T00:03:14;9.63;;;5.23;;
71435;SDS011;59251;51.326;12.370;2022-07-23T00:05:39;10.87;;;5.00;;
71435;SDS011;59251;51.326;12.370;2022-07-23T00:08:05;10.75;;;4.70;;
71435;SDS011;59251;51.326;12.370;2022-07-23T00:10:31;9.02;;;5.00;;
71435;SDS011;59251;51.326;12.370;2022-07-23T00:12:57;9.73;;;4.90;;
71435;SDS011;59251;51.326;12.370;2022-07-23T00:15:22;10.73;;;4.77;;
71435;SDS011;59251;51.326;12.370;2022-07-23T00:17:48;9.97;;;5.07;;
71435;SDS011;59251;51.326;12.370;2022-07-23T00:20:13;11.13;;;5.67;;
71435;SDS011;59251;51.326;12.370;2022-07-23T00:22:48;11.73;;;5.50;;
71435;SDS011;59251;51.326;12.370;2022-07-23T00:25:15;9.73;;;5.10;;
71435;SDS011;59251;51.326;12.370;2022-07-23T00:27:40;8.40;;;4.38;;
71435;SDS011;59251;51.326;12.370;2022-07-23T00:30:06;10.93;;;5.17;;
71435;SDS011;59251;51.326;12.370;2022-07-23T00:32:32;12.48;;;5.20;;
71435;SDS011;59251;51.326;12.370;2022-07-23T00:35:09;9.68;;;4.57;;
71435;SDS011;59251;51.326;12.370;2022-07-23T00:37:34;12.60;;;5.43;;
71435;SDS011;59251;51.326;12.370;2022-07-23T00:40:00;10.53;;;5.00;;
71435;SDS011;59251;51.326;12.370;2022-07-23T00:42:25;12.53;;;5.13;;
71435;SDS011;59251;51.326;12.370;2022-07-23T00:44:51;10.30;;;5.05;;
71435;SDS011;59251;51.326;12.370;2022-07-23T00:47:16;9.77;;;5.30;;
71435;SDS011;59251;51.326;12.370;2022-07-23T00:49:41;10.60;;;5.53;;
71435;SDS011;59251;51.326;12.370;2022-07-23T00:52:07;8.93;;;4.90;;
71435;SDS011;59251;51.326;12.370;2022-07-23T00:54:32;11.13;;;5.47;;
71435;SDS011;59251;51.326;12.370;2022-07-23T00:56:58;10.77;;;5.27;;
71435;SDS011;59251;51.326;12.370;2022-07-23T00:59:23;9.63;;;5.27;;
71435;SDS011;59251;51.326;12.370;2022-07-23T01:01:48;10.47;;;5.33;;
71435;SDS011;59251;51.326;12.370;2022-07-23T01:04:14;9.30;;;5.10;;
71435;SDS011;59251;51.326;12.370;2022-07-23T01:06:40;9.90;;;5.57;;
71435;SDS011;59251;51.326;12.370;2022-07-23T01:09:07;11.30;;;5.60;;
71435;SDS011;59251;51.326;12.370;2022-07-23T01:11:34;10.90;;;5.70;;
71435;SDS011;59251;51.326;12.370;2022-07-23T01:14:16;12.90;;;5.68;;
71435;SDS011;59251;51.326;12.370;2022-07-23T01:16:43;11.07;;;5.63;;
71435;SDS011;59251;51.326;12.370;2022-07-23T01:19:10;11.00;;;5.55;;
71435;SDS011;59251;51.326;12.370;2022-07-23T01:21:36;12.40;;;5.60;;
71435;SDS011;59251;51.326;12.370;2022-07-23T01:24:04;9.80;;;5.10;;
71435;SDS011;59251;51.326;12.370;2022-07-23T01:26:30;12.52;;;5.40;;
71435;SDS011;59251;51.326;12.370;2022-07-23T01:28:55;11.47;;;5.20;;
71435;SDS011;59251;51.326;12.370;2022-07-23T01:31:21;10.57;;;5.00;;
71435;SDS011;59251;51.326;12.370;2022-07-23T01:33:47;11.63;;;5.80;;
71435;SDS011;59251;51.326;12.370;2022-07-23T01:36:12;10.50;;;5.73;;
71435;SDS011;59251;51.326;12.370;2022-07-23T01:38:38;10.05;;;4.97;;
71435;SDS011;59251;51.326;12.370;2022-07-23T01:41:03;11.17;;;5.03;;
71435;SDS011;59251;51.326;12.370;2022-07-23T01:43:29;10.73;;;5.50;;
71435;SDS011;59251;51.326;12.370;2022-07-23T01:45:54;11.00;;;5.53;;
71435;SDS011;59251;51.326;12.370;2022-07-23T01:48:20;11.48;;;4.97;;
71435;SDS011;59251;51.326;12.370;2022-07-23T01:50:48;9.17;;;4.73;;
71435;SDS011;59251;51.326;12.370;2022-07-23T01:53:14;9.15;;;5.00;;
71435;SDS011;59251;51.326;12.370;2022-07-23T01:55:39;9.50;;;4.97;;
71435;SDS011;59251;51.326;12.370;2022-07-23T01:58:06;10.88;;;5.28;;
71435;SDS011;59251;51.326;12.370;2022-07-23T02:00:31;11.23;;;4.93;;
71435;SDS011;59251;51.326;12.370;2022-07-23T02:02:57;10.52;;;5.50;;
71435;SDS011;59251;51.326;12.370;2022-07-23T02:05:26;10.83;;;4.90;;
71435;SDS011;59251;51.326;12.370;2022-07-23T02:07:53;10.10;;;5.25;;
71435;SDS011;59251;51.326;12.370;2022-07-23T02:10:20;11.40;;;4.82;;
71435;SDS011;59251;51.326;12.370;2022-07-23T02:12:45;10.45;;;5.07;;
71435;SDS011;59251;51.326;12.370;2022-07-23T02:15:11;9.67;;;5.00;;
71435;SDS011;59251;51.326;12.370;2022-07-23T02:17:36;10.27;;;4.80;;
71435;SDS011;59251;51.326;12.370;2022-07-23T02:20:03;9.68;;;4.68;;
71435;SDS011;59251;51.326;12.370;2022-07-23T02:22:29;10.05;;;5.05;;
71435;SDS011;59251;51.326;12.370;2022-07-23T02:24:55;12.07;;;5.23;;
71435;SDS011;59251;51.326;12.370;2022-07-23T02:27:20;9.93;;;4.77;;
71435;SDS011;59251;51.326;12.370;2022-07-23T02:29:46;11.15;;;5.00;;
71435;SDS011;59251;51.326;12.370;2022-07-23T02:32:12;9.23;;;4.87;;
71435;SDS011;59251;51.326;12.370;2022-07-23T02:34:37;9.77;;;5.10;;
71435;SDS011;59251;51.326;12.370;2022-07-23T02:37:02;10.30;;;5.80;;
71435;SDS011;59251;51.326;12.370;2022-07-23T02:39:28;10.07;;;4.87;;
71435;SDS011;59251;51.326;12.370;2022-07-23T02:41:53;9.63;;;5.10;;
71435;SDS011;59251;51.326;12.370;2022-07-23T02:44:19;9.35;;;4.53;;
71435;SDS011;59251;51.326;12.370;2022-07-23T02:46:44;10.23;;;4.90;;
71435;SDS011;59251;51.326;12.370;2022-07-23T02:49:10;10.40;;;5.17;;
71435;SDS011;59251;51.326;12.370;2022-07-23T02:51:35;11.10;;;5.20;;
71435;SDS011;59251;51.326;12.370;2022-07-23T02:54:00;11.10;;;5.90;;
71435;SDS011;59251;51.326;12.370;2022-07-23T02:56:26;10.68;;;4.90;;
71435;SDS011;59251;51.326;12.370;2022-07-23T02:58:51;10.00;;;5.20;;
71435;SDS011;59251;51.326;12.370;2022-07-23T03:01:16;13.40;;;5.93;;
71435;SDS011;59251;51.326;12.370;2022-07-23T03:03:42;11.03;;;5.60;;
71435;SDS011;59251;51.326;12.370;2022-07-23T03:06:07;11.97;;;5.40;;
71435;SDS011;59251;51.326;12.370;2022-07-23T03:08:33;13.27;;;5.55;;
71435;SDS011;59251;51.326;12.370;2022-07-23T03:10:58;12.30;;;5.47;;
71435;SDS011;59251;51.326;12.370;2022-07-23T03:13:23;13.20;;;5.30;;
71435;SDS011;59251;51.326;12.370;2022-07-23T03:15:49;10.70;;;5.33;;
71435;SDS011;59251;51.326;12.370;2022-07-23T03:18:14;10.17;;;5.40;;
71435;SDS011;59251;51.326;12.370;2022-07-23T03:20:40;10.73;;;4.80;;
71435;SDS011;59251;51.326;12.370;2022-07-23T03:23:05;10.33;;;4.83;;
71435;SDS011;59251;51.326;12.370;2022-07-23T03:25:31;11.87;;;5.30;;
71435;SDS011;59251;51.326;12.370;2022-07-23T03:27:56;10.83;;;5.10;;
71435;SDS011;59251;51.326;12.370;2022-07-23T03:30:22;10.45;;;5.32;;
71435;SDS011;59251;51.326;12.370;2022-07-23T03:32:47;10.07;;;4.63;;
71435;SDS011;59251;51.326;12.370;2022-07-23T03:35:12;11.27;;;4.97;;
71435;SDS011;59251;51.326;12.370;2022-07-23T03:37:38;12.27;;;6.43;;
71435;SDS011;59251;51.326;12.370;2022-07-23T03:40:04;11.43;;;5.30;;
71435;SDS011;59251;51.326;12.370;2022-07-23T03:42:30;10.95;;;5.20;;
71435;SDS011;59251;51.326;12.370;2022-07-23T03:44:55;12.97;;;5.80;;
71435;SDS011;59251;51.326;12.370;2022-07-23T03:47:20;11.40;;;5.13;;
71435;SDS011;59251;51.326;12.370;2022-07-23T03:49:47;10.43;;;4.93;;
71435;SDS011;59251;51.326;12.370;2022-07-23T03:52:13;10.52;;;5.28;;
71435;SDS011;59251;51.326;12.370;2022-07-23T03:54:39;10.43;;;5.37;;
71435;SDS011;59251;51.326;12.370;2022-07-23T03:57:04;11.83;;;4.90;;
71435;SDS011;59251;51.326;12.370;2022-07-23T03:59:30;11.88;;;5.93;;
71435;SDS011;59251;51.326;12.370;2022-07-23T04:01:56;11.10;;;5.50;;
71435;SDS011;59251;51.326;12.370;2022-07-23T04:04:21;12.52;;;5.78;;
71435;SDS011;59251;51.326;12.370;2022-07-23T04:06:47;10.10;;;5.10;;
71435;SDS011;59251;51.326;12.370;2022-07-23T04:09:12;9.90;;;4.97;;
71435;SDS011;59251;51.326;12.370;2022-07-23T04:11:38;12.68;;;5.40;;
71435;SDS011;59251;51.326;12.370;2022-07-23T04:14:03;9.77;;;4.60;;
71435;SDS011;59251;51.326;12.370;2022-07-23T04:16:29;9.90;;;4.80;;
71435;SDS011;59251;51.326;12.370;2022-07-23T04:18:56;12.13;;;5.07;;
71435;SDS011;59251;51.326;12.370;2022-07-23T04:21:21;9.93;;;4.85;;
71435;SDS011;59251;51.326;12.370;2022-07-23T04:23:48;10.57;;;4.97;;
71435;SDS011;59251;51.326;12.370;2022-07-23T04:26:13;10.52;;;5.63;;
71435;SDS011;59251;51.326;12.370;2022-07-23T04:28:39;11.80;;;5.03;;
71435;SDS011;59251;51.326;12.370;2022-07-23T04:31:04;9.77;;;4.87;;
71435;SDS011;59251;51.326;12.370;2022-07-23T04:33:30;13.70;;;5.07;;
71435;SDS011;59251;51.326;12.370;2022-07-23T04:35:55;11.23;;;5.67;;
71435;SDS011;59251;51.326;12.370;2022-07-23T04:38:20;10.17;;;5.27;;
71435;SDS011;59251;51.326;12.370;2022-07-23T04:40:46;11.97;;;5.07;;
71435;SDS011;59251;51.326;12.370;2022-07-23T04:43:11;9.73;;;5.07;;
71435;SDS011;59251;51.326;12.370;2022-07-23T04:45:37;14.37;;;6.00;;
71435;SDS011;59251;51.326;12.370;2022-07-23T04:48:02;14.25;;;7.20;;
71435;SDS011;59251;51.326;12.370;2022-07-23T04:50:28;17.90;;;6.70;;
71435;SDS011;59251;51.326;12.370;2022-07-23T04:52:53;17.13;;;8.13;;
71435;SDS011;59251;51.326;12.370;2022-07-23T04:55:19;15.67;;;8.10;;
71435;SDS011;59251;51.326;12.370;2022-07-23T04:57:44;18.87;;;8.00;;
71435;SDS011;59251;51.326;12.370;2022-07-23T05:00:09;15.73;;;8.23;;
71435;SDS011;59251;51.326;12.370;2022-07-23T05:02:36;14.90;;;7.72;;
71435;SDS011;59251;51.326;12.370;2022-07-23T05:05:01;14.07;;;7.53;;
71435;SDS011;59251;51.326;12.370;2022-07-23T05:07:27;14.40;;;7.30;;
71435;SDS011;59251;51.326;12.370;2022-07-23T05:09:52;15.13;;;7.13;;
71435;SDS011;59251;51.326;12.370;2022-07-23T05:12:18;14.10;;;7.13;;
71435;SDS011;59251;51.326;12.370;2022-07-23T05:14:43;15.13;;;7.53;;
71435;SDS011;59251;51.326;12.370;2022-07-23T05:17:08;16.43;;;8.10;;
71435;SDS011;59251;51.326;12.370;2022-07-23T05:19:34;15.87;;;7.27;;
71435;SDS011;59251;51.326;12.370;2022-07-23T05:22:00;19.05;;;8.07;;
71435;SDS011;59251;51.326;12.370;2022-07-23T05:24:26;17.57;;;9.67;;
71435;SDS011;59251;51.326;12.370;2022-07-23T05:26:51;20.02;;;8.75;;
71435;SDS011;59251;51.326;12.370;2022-07-23T05:29:16;19.13;;;10.30;;
71435;SDS011;59251;51.326;12.370;2022-07-23T05:31:42;22.47;;;11.13;;
71435;SDS011;59251;51.326;12.370;2022-07-23T05:34:07;20.37;;;10.57;;
71435;SDS011;59251;51.326;12.370;2022-07-23T05:36:33;17.73;;;9.15;;
71435;SDS011;59251;51.326;12.370;2022-07-23T05:38:58;17.53;;;8.83;;
71435;SDS011;59251;51.326;12.370;2022-07-23T05:41:24;17.73;;;8.60;;
71435;SDS011;59251;51.326;12.370;2022-07-23T05:43:49;19.10;;;7.82;;
71435;SDS011;59251;51.326;12.370;2022-07-23T05:46:15;16.73;;;9.10;;
71435;SDS011;59251;51.326;12.370;2022-07-23T05:48:40;17.77;;;9.83;;
71435;SDS011;59251;51.326;12.370;2022-07-23T05:51:07;21.33;;;10.15;;
71435;SDS011;59251;51.326;12.370;2022-07-23T05:53:33;18.58;;;9.23;;
71435;SDS011;59251;51.326;12.370;2022-07-23T05:55:59;19.37;;;10.60;;
71435;SDS011;59251;51.326;12.370;2022-07-23T05:58:25;16.65;;;8.90;;
71435;SDS011;59251;51.326;12.370;2022-07-23T06:00:50;16.03;;;7.80;;
71435;SDS011;59251;51.326;12.370;2022-07-23T06:03:15;16.80;;;7.87;;
71435;SDS011;59251;51.326;12.370;2022-07-23T06:05:41;21.50;;;9.00;;
71435;SDS011;59251;51.326;12.370;2022-07-23T06:08:06;16.50;;;8.25;;
71435;SDS011;59251;51.326;12.370;2022-07-23T06:10:32;15.43;;;8.27;;
71435;SDS011;59251;51.326;12.370;2022-07-23T06:12:57;18.13;;;8.07;;
71435;SDS011;59251;51.326;12.370;2022-07-23T06:15:23;17.07;;;8.40;;
71435;SDS011;59251;51.326;12.370;2022-07-23T06:17:48;15.27;;;8.50;;
71435;SDS011;59251;51.326;12.370;2022-07-23T06:20:14;17.43;;;8.77;;
71435;SDS011;59251;51.326;12.370;2022-07-23T06:22:39;15.30;;;7.83;;
71435;SDS011;59251;51.326;12.370;2022-07-23T06:25:05;13.00;;;6.97;;
71435;SDS011;59251;51.326;12.370;2022-07-23T06:27:31;17.60;;;8.43;;
71435;SDS011;59251;51.326;12.370;2022-07-23T06:29:57;14.85;;;7.72;;
71435;SDS011;59251;51.326;12.370;2022-07-23T06:32:22;13.77;;;6.87;;
71435;SDS011;59251;51.326;12.370;2022-07-23T06:34:47;14.30;;;7.33;;
71435;SDS011;59251;51.326;12.370;2022-07-23T06:37:13;14.27;;;7.47;;
71435;SDS011;59251;51.326;12.370;2022-07-23T06:39:38;15.30;;;7.80;;
71435;SDS011;59251;51.326;12.370;2022-07-23T06:42:04;12.07;;;6.35;;
71435;SDS011;59251;51.326;12.370;2022-07-23T06:44:29;13.00;;;6.73;;
71435;SDS011;59251;51.326;12.370;2022-07-23T06:46:55;12.87;;;6.77;;
71435;SDS011;59251;51.326;12.370;2022-07-23T06:49:20;11.98;;;6.55;;
71435;SDS011;59251;51.326;12.370;2022-07-23T06:51:46;13.27;;;6.83;;
71435;SDS011;59251;51.326;12.370;2022-07-23T06:54:11;13.87;;;6.90;;
71435;SDS011;59251;51.326;12.370;2022-07-23T06:56:36;15.40;;;6.93;;
71435;SDS011;59251;51.326;12.370;2022-07-23T06:59:02;14.25;;;6.25;;
71435;SDS011;59251;51.326;12.370;2022-07-23T07:01:28;17.53;;;7.23;;
71435;SDS011;59251;51.326;12.370;2022-07-23T07:03:53;16.47;;;6.40;;
71435;SDS011;59251;51.326;12.370;2022-07-23T07:06:18;14.80;;;6.30;;
71435;SDS011;59251;51.326;12.370;2022-07-23T07:08:44;12.63;;;6.00;;
71435;SDS011;59251;51.326;12.370;2022-07-23T07:11:09;14.50;;;5.83;;
71435;SDS011;59251;51.326;12.370;2022-07-23T07:13:35;12.03;;;6.23;;
71435;SDS011;59251;51.326;12.370;2022-07-23T07:16:01;12.13;;;6.22;;
71435;SDS011;59251;51.326;12.370;2022-07-23T07:18:27;12.43;;;6.28;;
71435;SDS011;59251;51.326;12.370;2022-07-23T07:20:53;13.27;;;6.77;;
71435;SDS011;59251;51.326;12.370;2022-07-23T07:23:18;13.20;;;7.22;;
71435;SDS011;59251;51.326;12.370;2022-07-23T07:25:45;16.27;;;6.73;;
71435;SDS011;59251;51.326;12.370;2022-07-23T07:28:11;15.43;;;6.65;;
71435;SDS011;59251;51.326;12.370;2022-07-23T07:30:36;15.90;;;7.27;;
71435;SDS011;59251;51.326;12.370;2022-07-23T07:33:01;14.50;;;6.70;;
71435;SDS011;59251;51.326;12.370;2022-07-23T07:35:27;14.57;;;7.22;;
71435;SDS011;59251;51.326;12.370;2022-07-23T07:37:52;14.47;;;7.20;;
71435;SDS011;59251;51.326;12.370;2022-07-23T07:40:18;16.93;;;7.50;;
71435;SDS011;59251;51.326;12.370;2022-07-23T07:42:45;12.75;;;7.10;;
71435;SDS011;59251;51.326;12.370;2022-07-23T07:45:13;13.75;;;7.00;;
71435;SDS011;59251;51.326;12.370;2022-07-23T07:47:38;13.20;;;7.10;;
71435;SDS011;59251;51.326;12.370;2022-07-23T07:50:04;15.23;;;7.67;;
71435;SDS011;59251;51.326;12.370;2022-07-23T07:52:30;14.07;;;7.07;;
71435;SDS011;59251;51.326;12.370;2022-07-23T07:54:55;14.60;;;7.50;;
71435;SDS011;59251;51.326;12.370;2022-07-23T07:57:20;12.50;;;6.90;;
71435;SDS011;59251;51.326;12.370;2022-07-23T07:59:46;12.70;;;7.10;;
71435;SDS011;59251;51.326;12.370;2022-07-23T08:02:11;13.73;;;7.63;;
71435;SDS011;59251;51.326;12.370;2022-07-23T08:04:36;15.60;;;8.30;;
71435;SDS011;59251;51.326;12.370;2022-07-23T08:07:03;17.47;;;7.33;;
71435;SDS011;59251;51.326;12.370;2022-07-23T08:09:28;14.43;;;7.30;;
71435;SDS011;59251;51.326;12.370;2022-07-23T08:11:54;15.23;;;7.60;;
71435;SDS011;59251;51.326;12.370;2022-07-23T08:14:19;15.87;;;7.87;;
71435;SDS011;59251;51.326;12.370;2022-07-23T08:16:44;16.53;;;9.20;;
71435;SDS011;59251;51.326;12.370;2022-07-23T08:19:10;15.80;;;9.00;;
71435;SDS011;59251;51.326;12.370;2022-07-23T08:21:35;15.93;;;7.67;;
71435;SDS011;59251;51.326;12.370;2022-07-23T08:24:01;13.80;;;8.07;;
71435;SDS011;59251;51.326;12.370;2022-07-23T08:26:26;15.93;;;8.30;;
71435;SDS011;59251;51.326;12.370;2022-07-23T08:28:52;16.23;;;8.63;;
71435;SDS011;59251;51.326;12.370;2022-07-23T08:31:17;15.00;;;8.53;;
71435;SDS011;59251;51.326;12.370;2022-07-23T08:33:43;16.00;;;8.45;;
71435;SDS011;59251;51.326;12.370;2022-07-23T08:36:09;14.47;;;8.77;;
71435;SDS011;59251;51.326;12.370;2022-07-23T08:38:34;14.93;;;8.20;;
71435;SDS011;59251;51.326;12.370;2022-07-23T08:41:00;14.60;;;8.48;;
71435;SDS011;59251;51.326;12.370;2022-07-23T08:43:28;13.93;;;7.22;;
71435;SDS011;59251;51.326;12.370;2022-07-23T08:45:55;15.43;;;8.13;;
71435;SDS011;59251;51.326;12.370;2022-07-23T08:48:23;13.68;;;8.18;;
71435;SDS011;59251;51.326;12.370;2022-07-23T08:50:50;15.70;;;9.30;;
71435;SDS011;59251;51.326;12.370;2022-07-23T08:53:18;14.52;;;9.02;;
71435;SDS011;59251;51.326;12.370;2022-07-23T08:55:44;14.38;;;9.40;;
71435;SDS011;59251;51.326;12.370;2022-07-23T08:58:11;15.25;;;9.32;;
71435;SDS011;59251;51.326;12.370;2022-07-23T09:00:37;15.88;;;9.30;;
71435;SDS011;59251;51.326;12.370;2022-07-23T09:03:03;15.57;;;9.33;;
71435;SDS011;59251;51.326;12.370;2022-07-23T09:05:28;13.93;;;8.87;;
71435;SDS011;59251;51.326;12.370;2022-07-23T09:15:52;13.27;;;7.68;;
71435;SDS011;59251;51.326;12.370;2022-07-23T09:18:27;13.50;;;8.15;;
71435;SDS011;59251;51.326;12.370;2022-07-23T09:21:05;13.90;;;8.40;;
71435;SDS011;59251;51.326;12.370;2022-07-23T09:23:44;15.02;;;8.85;;
71435;SDS011;59251;51.326;12.370;2022-07-23T09:26:59;13.63;;;8.10;;
71435;SDS011;59251;51.326;12.370;2022-07-23T09:29:04;15.75;;;9.25;;
71435;SDS011;59251;51.326;12.370;2022-07-23T09:31:56;17.38;;;10.43;;
71435;SDS011;59251;51.326;12.370;2022-07-23T09:34:27;16.65;;;9.50;;
71435;SDS011;59251;51.326;12.370;2022-07-23T09:36:57;14.77;;;8.80;;
71435;SDS011;59251;51.326;12.370;2022-07-23T09:39:33;13.33;;;7.77;;
71435;SDS011;59251;51.326;12.370;2022-07-23T09:44:43;14.15;;;7.28;;
71435;SDS011;59251;51.326;12.370;2022-07-23T09:47:10;15.93;;;7.72;;
71435;SDS011;59251;51.326;12.370;2022-07-23T09:49:35;14.70;;;7.90;;
71435;SDS011;59251;51.326;12.370;2022-07-23T09:52:01;14.10;;;7.80;;
71435;SDS011;59251;51.326;12.370;2022-07-23T09:54:28;14.18;;;8.25;;
71435;SDS011;59251;51.326;12.370;2022-07-23T09:59:32;13.35;;;7.22;;
71435;SDS011;59251;51.326;12.370;2022-07-23T10:02:00;13.10;;;7.90;;
71435;SDS011;59251;51.326;12.370;2022-07-23T10:04:27;12.90;;;7.13;;
71435;SDS011;59251;51.326;12.370;2022-07-23T10:06:54;13.65;;;6.78;;
71435;SDS011;59251;51.326;12.370;2022-07-23T10:09:23;12.85;;;6.70;;
71435;SDS011;59251;51.326;12.370;2022-07-23T10:11:52;14.93;;;6.82;;
71435;SDS011;59251;51.326;12.370;2022-07-23T10:14:21;14.20;;;6.90;;
71435;SDS011;59251;51.326;12.370;2022-07-23T10:16:46;13.77;;;7.55;;
71435;SDS011;59251;51.326;12.370;2022-07-23T10:19:13;13.02;;;7.05;;
71435;SDS011;59251;51.326;12.370;2022-07-23T10:21:45;12.33;;;6.43;;
71435;SDS011;59251;51.326;12.370;2022-07-23T10:27:20;13.63;;;7.03;;
71435;SDS011;59251;51.326;12.370;2022-07-23T10:31:08;13.90;;;7.33;;
71435;SDS011;59251;51.326;12.370;2022-07-23T10:36:41;11.60;;;6.70;;
71435;SDS011;59251;51.326;12.370;2022-07-23T10:41:53;14.82;;;7.05;;
71435;SDS011;59251;51.326;12.370;2022-07-23T10:44:37;14.00;;;7.37;;
71435;SDS011;59251;51.326;12.370;2022-07-23T10:47:04;17.63;;;8.27;;
71435;SDS011;59251;51.326;12.370;2022-07-23T10:49:35;13.38;;;7.70;;
71435;SDS011;59251;51.326;12.370;2022-07-23T10:54:38;16.93;;;8.47;;
71435;SDS011;59251;51.326;12.370;2022-07-23T10:57:05;15.48;;;9.80;;
71435;SDS011;59251;51.326;12.370;2022-07-23T10:59:59;15.57;;;7.75;;
71435;SDS011;59251;51.326;12.370;2022-07-23T11:02:37;15.85;;;8.98;;
71435;SDS011;59251;51.326;12.370;2022-07-23T11:05:08;15.85;;;9.38;;
71435;SDS011;59251;51.326;12.370;2022-07-23T11:07:35;15.60;;;9.17;;
71435;SDS011;59251;51.326;12.370;2022-07-23T11:10:35;16.08;;;9.35;;
71435;SDS011;59251;51.326;12.370;2022-07-23T11:31:59;17.42;;;10.23;;
71435;SDS011;59251;51.326;12.370;2022-07-23T11:36:58;20.25;;;12.57;;
71435;SDS011;59251;51.326;12.370;2022-07-23T11:39:25;15.70;;;9.02;;
71435;SDS011;59251;51.326;12.370;2022-07-23T11:41:53;16.70;;;10.35;;
71435;SDS011;59251;51.326;12.370;2022-07-23T11:44:51;16.67;;;10.13;;
71435;SDS011;59251;51.326;12.370;2022-07-23T11:47:11;17.45;;;9.85;;
71435;SDS011;59251;51.326;12.370;2022-07-23T11:49:37;16.92;;;9.70;;
71435;SDS011;59251;51.326;12.370;2022-07-23T11:54:33;16.67;;;9.37;;
71435;SDS011;59251;51.326;12.370;2022-07-23T11:57:01;16.25;;;9.88;;
71435;SDS011;59251;51.326;12.370;2022-07-23T11:59:28;17.42;;;9.63;;
71435;SDS011;59251;51.326;12.370;2022-07-23T12:01:57;15.40;;;9.30;;
71435;SDS011;59251;51.326;12.370;2022-07-23T12:04:40;16.63;;;9.18;;
71435;SDS011;59251;51.326;12.370;2022-07-23T12:09:54;17.02;;;10.43;;
71435;SDS011;59251;51.326;12.370;2022-07-23T12:12:20;16.10;;;9.63;;
71435;SDS011;59251;51.326;12.370;2022-07-23T12:14:56;17.08;;;9.60;;
71435;SDS011;59251;51.326;12.370;2022-07-23T12:17:28;15.63;;;9.88;;
71435;SDS011;59251;51.326;12.370;2022-07-23T12:19:56;14.83;;;9.10;;
71435;SDS011;59251;51.326;12.370;2022-07-23T12:22:23;16.45;;;9.05;;
71435;SDS011;59251;51.326;12.370;2022-07-23T12:24:57;17.90;;;9.70;;
71435;SDS011;59251;51.326;12.370;2022-07-23T12:27:25;17.52;;;9.93;;
71435;SDS011;59251;51.326;12.370;2022-07-23T12:29:51;18.42;;;10.02;;
71435;SDS011;59251;51.326;12.370;2022-07-23T12:32:23;16.17;;;10.53;;
71435;SDS011;59251;51.326;12.370;2022-07-23T12:35:06;15.98;;;10.40;;
71435;SDS011;59251;51.326;12.370;2022-07-23T12:37:33;18.43;;;11.73;;
71435;SDS011;59251;51.326;12.370;2022-07-23T12:43:00;17.63;;;11.57;;
71435;SDS011;59251;51.326;12.370;2022-07-23T12:45:28;15.63;;;10.05;;
71435;SDS011;59251;51.326;12.370;2022-07-23T12:48:07;16.80;;;10.90;;
71435;SDS011;59251;51.326;12.370;2022-07-23T12:50:44;16.77;;;10.70;;
71435;SDS011;59251;51.326;12.370;2022-07-23T12:53:19;16.17;;;10.70;;
71435;SDS011;59251;51.326;12.370;2022-07-23T12:55:47;16.95;;;11.55;;
71435;SDS011;59251;51.326;12.370;2022-07-23T12:58:18;16.67;;;11.52;;
71435;SDS011;59251;51.326;12.370;2022-07-23T13:00:58;16.23;;;10.50;;
71435;SDS011;59251;51.326;12.370;2022-07-23T13:03:30;17.43;;;9.70;;
71435;SDS011;59251;51.326;12.370;2022-07-23T13:05:57;15.50;;;9.25;;
71435;SDS011;59251;51.326;12.370;2022-07-23T13:08:24;15.35;;;9.40;;
71435;SDS011;59251;51.326;12.370;2022-07-23T13:10:52;13.75;;;8.90;;
71435;SDS011;59251;51.326;12.370;2022-07-23T13:13:24;11.63;;;7.60;;
71435;SDS011;59251;51.326;12.370;2022-07-23T13:15:51;13.80;;;8.53;;
71435;SDS011;59251;51.326;12.370;2022-07-23T13:18:17;14.30;;;8.25;;
71435;SDS011;59251;51.326;12.370;2022-07-23T13:20:44;12.73;;;7.60;;
71435;SDS011;59251;51.326;12.370;2022-07-23T13:23:10;12.38;;;7.70;;
71435;SDS011;59251;51.326;12.370;2022-07-23T13:25:36;12.03;;;7.33;;
71435;SDS011;59251;51.326;12.370;2022-07-23T13:28:02;13.43;;;7.95;;
71435;SDS011;59251;51.326;12.370;2022-07-23T13:30:28;11.90;;;7.50;;
71435;SDS011;59251;51.326;12.370;2022-07-23T13:32:54;12.95;;;8.15;;
71435;SDS011;59251;51.326;12.370;2022-07-23T13:35:19;10.77;;;7.80;;
71435;SDS011;59251;51.326;12.370;2022-07-23T13:37:45;12.68;;;7.43;;
71435;SDS011;59251;51.326;12.370;2022-07-23T13:40:10;12.33;;;7.70;;
71435;SDS011;59251;51.326;12.370;2022-07-23T13:42:36;11.73;;;7.23;;
71435;SDS011;59251;51.326;12.370;2022-07-23T13:45:03;10.27;;;7.07;;
71435;SDS011;59251;51.326;12.370;2022-07-23T13:47:30;11.75;;;7.10;;
71435;SDS011;59251;51.326;12.370;2022-07-23T13:49:56;10.73;;;6.68;;
71435;SDS011;59251;51.326;12.370;2022-07-23T13:52:21;11.73;;;7.50;;
71435;SDS011;59251;51.326;12.370;2022-07-23T13:54:47;13.47;;;7.73;;
71435;SDS011;59251;51.326;12.370;2022-07-23T13:57:12;10.07;;;6.82;;
71435;SDS011;59251;51.326;12.370;2022-07-23T13:59:37;10.27;;;6.90;;
71435;SDS011;59251;51.326;12.370;2022-07-23T14:02:03;10.90;;;7.00;;
71435;SDS011;59251;51.326;12.370;2022-07-23T14:04:29;10.02;;;7.10;;
71435;SDS011;59251;51.326;12.370;2022-07-23T14:06:55;10.63;;;6.80;;
71435;SDS011;59251;51.326;12.370;2022-07-23T14:09:21;11.27;;;6.97;;
71435;SDS011;59251;51.326;12.370;2022-07-23T14:11:47;9.67;;;6.50;;
71435;SDS011;59251;51.326;12.370;2022-07-23T14:14:12;11.15;;;6.70;;
71435;SDS011;59251;51.326;12.370;2022-07-23T14:16:38;10.33;;;6.90;;
71435;SDS011;59251;51.326;12.370;2022-07-23T14:19:03;10.23;;;7.28;;
71435;SDS011;59251;51.326;12.370;2022-07-23T14:21:29;11.60;;;7.97;;
71435;SDS011;59251;51.326;12.370;2022-07-23T14:23:54;11.23;;;8.00;;
71435;SDS011;59251;51.326;12.370;2022-07-23T14:26:20;11.20;;;8.53;;
71435;SDS011;59251;51.326;12.370;2022-07-23T14:28:45;13.00;;;9.10;;
71435;SDS011;59251;51.326;12.370;2022-07-23T14:31:10;11.10;;;7.78;;
71435;SDS011;59251;51.326;12.370;2022-07-23T14:33:36;10.77;;;7.33;;
71435;SDS011;59251;51.326;12.370;2022-07-23T14:36:01;11.37;;;8.00;;
71435;SDS011;59251;51.326;12.370;2022-07-23T14:38:27;12.25;;;8.38;;
71435;SDS011;59251;51.326;12.370;2022-07-23T14:40:52;11.87;;;8.03;;
71435;SDS011;59251;51.326;12.370;2022-07-23T14:43:18;12.13;;;7.97;;
71435;SDS011;59251;51.326;12.370;2022-07-23T14:45:43;11.00;;;7.90;;
71435;SDS011;59251;51.326;12.370;2022-07-23T14:48:10;11.80;;;7.97;;
71435;SDS011;59251;51.326;12.370;2022-07-23T14:50:35;12.07;;;8.00;;
71435;SDS011;59251;51.326;12.370;2022-07-23T14:53:00;11.85;;;8.77;;
71435;SDS011;59251;51.326;12.370;2022-07-23T14:55:26;12.00;;;8.40;;
71435;SDS011;59251;51.326;12.370;2022-07-23T14:57:52;11.93;;;8.23;;
71435;SDS011;59251;51.326;12.370;2022-07-23T15:00:17;12.00;;;7.55;;
71435;SDS011;59251;51.326;12.370;2022-07-23T15:02:43;10.83;;;7.73;;
71435;SDS011;59251;51.326;12.370;2022-07-23T15:05:08;11.10;;;8.37;;
71435;SDS011;59251;51.326;12.370;2022-07-23T15:07:34;13.30;;;8.35;;
71435;SDS011;59251;51.326;12.370;2022-07-23T15:09:59;11.47;;;8.27;;
71435;SDS011;59251;51.326;12.370;2022-07-23T15:12:25;12.82;;;8.02;;
71435;SDS011;59251;51.326;12.370;2022-07-23T15:14:50;12.37;;;8.07;;